Terminal Aerodrome Forecast
Issued by NWS

Current Version | Previous Version | Text Only | Print | Product List | Glossary On
Versions: 1 2 3 4 5 6 7 8 9 10 11 12 13 14 15 16 17
000
FTUS41 KBOX 201128
TAFHYA
TAF
KHYA 201128Z 2012/2112 29010KT P6SM SKC
     FM201400 30010G18KT P6SM SKC
     FM202100 29010KT P6SM FEW250
     FM211000 00000KT P6SM SKC=

USA.gov is the U.S. government's official web portal to all federal, state and local government web resources and services.